Time;durP1;ratioP1;P1;durP2;ratioP2;P2;SDS_P1;SDS_P2;PMS_P1;PMS_P2;Temp;Humidity;BMP_temperature;BMP_pressure;BME280_temperature;BME280_humidity;BME280_pressure;Samples;Min_cycle;Max_cycle;Signal;HPM_P1;HPM_P2
2023/07/01 00:01:54;;;;;;;4.00;3.20;;;17.90;99.90;;;;;;4995716;28;20497;-59
2023/07/01 00:04:22;;;;;;;4.53;3.30;;;17.90;99.90;;;;;;4997775;28;20861;-59
2023/07/01 00:06:50;;;;;;;3.33;3.10;;;17.90;99.90;;;;;;4992820;28;20465;-59
2023/07/01 00:09:18;;;;;;;4.00;2.97;;;17.90;99.90;;;;;;4987589;28;20549;-58
2023/07/01 00:11:46;;;;;;;3.60;3.30;;;17.80;99.90;;;;;;4993740;28;20516;-61
2023/07/01 00:14:14;;;;;;;3.20;2.93;;;17.80;99.90;;;;;;4986003;28;20479;-61
2023/07/01 00:16:43;;;;;;;4.87;3.10;;;17.80;99.90;;;;;;4980490;28;20465;-60
2023/07/01 00:19:11;;;;;;;3.33;2.90;;;17.80;99.90;;;;;;4989740;28;20487;-61
2023/07/01 00:21:39;;;;;;;3.43;3.00;;;17.80;99.90;;;;;;4989057;28;20599;-61
2023/07/01 00:24:07;;;;;;;3.90;2.80;;;17.80;99.90;;;;;;4975692;28;20487;-61
2023/07/01 00:26:36;;;;;;;3.03;2.80;;;17.80;99.90;;;;;;4983514;28;20472;-61
2023/07/01 00:29:04;;;;;;;3.10;2.80;;;17.70;99.90;;;;;;4984315;28;20967;-61
2023/07/01 00:31:32;;;;;;;3.27;3.07;;;17.80;99.90;;;;;;4995389;28;20554;-61
2023/07/01 00:34:01;;;;;;;3.53;3.23;;;17.80;99.90;;;;;;4986691;28;20595;-61
2023/07/01 00:36:29;;;;;;;3.40;2.93;;;17.80;99.90;;;;;;4985476;28;21041;-61
2023/07/01 00:38:57;;;;;;;3.37;3.07;;;17.80;99.90;;;;;;4996561;28;20962;-61
2023/07/01 00:41:25;;;;;;;3.30;3.00;;;17.70;99.90;;;;;;4986931;28;21060;-59
2023/07/01 00:43:53;;;;;;;3.50;3.20;;;17.80;99.90;;;;;;4986529;28;21182;-59
2023/07/01 00:46:21;;;;;;;3.73;3.03;;;17.70;99.90;;;;;;4986795;28;21044;-59
2023/07/01 00:48:50;;;;;;;3.40;3.10;;;17.70;99.90;;;;;;4990217;28;20476;-59
2023/07/01 00:51:19;;;;;;;3.40;3.10;;;17.70;99.90;;;;;;4989700;28;20592;-60
2023/07/01 00:53:48;;;;;;;3.27;3.07;;;17.70;99.90;;;;;;4976313;28;20500;-61
2023/07/01 00:56:16;;;;;;;4.33;3.57;;;17.70;99.90;;;;;;4981760;28;20479;-60
2023/07/01 00:58:44;;;;;;;3.87;3.23;;;17.70;99.90;;;;;;4995097;28;20551;-60
2023/07/01 01:01:18;;;;;;;3.30;3.10;;;17.60;99.90;;;;;;4993365;28;20456;-61
2023/07/01 01:03:53;;;;;;;3.43;3.13;;;17.70;99.90;;;;;;4987810;28;20491;-60
2023/07/01 01:06:33;;;;;;;4.80;3.70;;;17.60;99.90;;;;;;4987174;28;20615;-61
2023/07/01 01:09:10;;;;;;;3.17;2.87;;;17.60;99.90;;;;;;4989219;28;20588;-61
2023/07/01 01:11:42;;;;;;;3.37;3.17;;;17.60;99.90;;;;;;4995997;28;21035;-60
2023/07/01 01:14:12;;;;;;;3.63;3.30;;;17.50;99.90;;;;;;4986300;28;20492;-59
2023/07/01 01:16:41;;;;;;;3.57;3.27;;;17.50;99.90;;;;;;4994687;28;20926;-60
2023/07/01 01:19:19;;;;;;;3.93;3.63;;;17.50;99.90;;;;;;4989390;28;21038;-59
2023/07/01 01:21:56;;;;;;;5.13;3.77;;;17.50;99.90;;;;;;4987630;28;20495;-60
2023/07/01 01:24:29;;;;;;;3.77;3.47;;;17.50;99.90;;;;;;4988882;28;20486;-60
2023/07/01 01:27:00;;;;;;;5.07;3.57;;;17.50;99.90;;;;;;4985547;28;20464;-60
2023/07/01 01:29:30;;;;;;;3.87;3.57;;;17.50;99.90;;;;;;4996710;28;20556;-59
2023/07/01 01:31:58;;;;;;;3.73;3.43;;;17.40;99.90;;;;;;4990381;28;21032;-59
2023/07/01 01:34:26;;;;;;;3.83;3.50;;;17.40;99.90;;;;;;4989277;28;20555;-59
2023/07/01 01:36:57;;;;;;;3.73;3.20;;;17.50;99.90;;;;;;4995623;28;20540;-58
2023/07/01 01:39:31;;;;;;;3.53;3.33;;;17.50;99.90;;;;;;4994633;28;20477;-59
2023/07/01 01:42:05;;;;;;;3.33;3.13;;;17.50;99.90;;;;;;4997706;28;20501;-61
2023/07/01 01:44:45;;;;;;;4.47;3.43;;;17.40;99.90;;;;;;4990811;28;20467;-59
2023/07/01 01:47:15;;;;;;;3.50;3.30;;;17.40;99.90;;;;;;4994029;28;20475;-61
2023/07/01 01:49:44;;;;;;;3.40;3.10;;;17.50;99.90;;;;;;4990556;28;21247;-60
2023/07/01 01:52:16;;;;;;;3.93;3.63;;;17.50;99.90;;;;;;4988612;28;20921;-60
2023/07/01 01:54:46;;;;;;;4.13;3.73;;;17.50;99.90;;;;;;4990654;28;21057;-59
2023/07/01 01:57:15;;;;;;;5.20;3.80;;;17.50;99.90;;;;;;4992575;28;20522;-59
2023/07/01 01:59:46;;;;;;;4.07;3.77;;;17.50;99.90;;;;;;4998981;28;20492;-60
2023/07/01 02:02:14;;;;;;;4.20;3.90;;;17.50;99.90;;;;;;4982327;28;20500;-61
2023/07/01 02:04:42;;;;;;;3.97;3.67;;;17.40;99.90;;;;;;4996949;28;20507;-61
2023/07/01 02:07:11;;;;;;;3.70;3.30;;;17.50;99.90;;;;;;4997337;28;20480;-59
2023/07/01 02:09:39;;;;;;;3.30;3.10;;;17.50;99.90;;;;;;4991816;28;20836;-59
2023/07/01 02:12:07;;;;;;;3.30;3.10;;;17.50;99.90;;;;;;4992362;28;20468;-61
2023/07/01 02:14:35;;;;;;;3.57;3.30;;;17.40;99.90;;;;;;4989060;28;20482;-59
2023/07/01 02:17:05;;;;;;;3.90;3.60;;;17.40;99.90;;;;;;4990575;28;20468;-61
2023/07/01 02:19:33;;;;;;;3.73;3.43;;;17.40;99.90;;;;;;4995915;28;20480;-60
2023/07/01 02:22:01;;;;;;;4.03;3.60;;;17.40;99.90;;;;;;4989561;28;20579;-60
2023/07/01 02:24:29;;;;;;;3.53;3.20;;;17.40;99.90;;;;;;4994289;28;20469;-58
2023/07/01 02:26:57;;;;;;;4.20;3.90;;;17.40;99.90;;;;;;4994644;28;20499;-61
2023/07/01 02:29:25;;;;;;;3.97;3.67;;;17.40;99.90;;;;;;4994903;28;20495;-61
2023/07/01 02:31:53;;;;;;;3.60;3.40;;;17.40;99.90;;;;;;4993098;28;20886;-60
2023/07/01 02:34:27;;;;;;;4.20;4.00;;;17.40;99.90;;;;;;4994428;28;20505;-60
2023/07/01 02:36:55;;;;;;;3.97;3.67;;;17.40;99.90;;;;;;4982380;28;20473;-58
2023/07/01 02:39:23;;;;;;;3.80;3.60;;;17.40;99.90;;;;;;4986976;28;20555;-58
2023/07/01 02:41:51;;;;;;;4.03;3.70;;;17.40;99.90;;;;;;4987574;28;20504;-60
2023/07/01 02:44:19;;;;;;;3.80;3.50;;;17.40;99.90;;;;;;4985324;28;21044;-60
2023/07/01 02:46:48;;;;;;;3.83;3.43;;;17.40;99.90;;;;;;4991641;28;20531;-58
2023/07/01 02:49:16;;;;;;;3.67;3.37;;;17.40;99.90;;;;;;4990995;28;20834;-60
2023/07/01 02:51:45;;;;;;;3.67;3.47;;;17.40;99.90;;;;;;4986806;28;20601;-59
2023/07/01 02:54:13;;;;;;;4.20;3.70;;;17.40;99.90;;;;;;4983717;28;21040;-60
2023/07/01 02:56:41;;;;;;;4.33;4.03;;;17.40;99.90;;;;;;4993648;28;21178;-59
2023/07/01 02:59:10;;;;;;;3.70;3.37;;;17.40;99.90;;;;;;4992938;28;20554;-61
2023/07/01 03:01:38;;;;;;;3.90;3.53;;;17.40;99.90;;;;;;4989405;28;20958;-61
2023/07/01 03:04:07;;;;;;;3.80;3.57;;;17.40;99.90;;;;;;4993594;28;20492;-58
2023/07/01 03:06:49;;;;;;;3.63;3.43;;;17.50;99.90;;;;;;4988859;28;20891;-61
2023/07/01 03:09:17;;;;;;;4.03;3.70;;;17.50;99.90;;;;;;4992886;28;20495;-60
2023/07/01 03:11:45;;;;;;;3.60;3.30;;;17.50;99.90;;;;;;4994215;28;21234;-64
2023/07/01 03:14:13;;;;;;;3.77;3.57;;;17.50;99.90;;;;;;4992958;28;20492;-62
2023/07/01 03:16:41;;;;;;;3.70;3.40;;;17.50;99.90;;;;;;4986731;28;21786;-59
2023/07/01 03:19:10;;;;;;;4.07;3.70;;;17.60;99.90;;;;;;4996904;28;20906;-59
2023/07/01 03:21:38;;;;;;;4.30;3.37;;;17.60;99.90;;;;;;4993637;28;20580;-60
2023/07/01 03:24:07;;;;;;;5.00;3.80;;;17.60;99.90;;;;;;4992799;28;20985;-60
2023/07/01 03:26:35;;;;;;;3.53;3.23;;;17.60;99.90;;;;;;4988149;28;20890;-59
2023/07/01 03:29:04;;;;;;;4.57;3.50;;;17.60;99.90;;;;;;4991749;28;20474;-60
2023/07/01 03:31:32;;;;;;;3.90;3.57;;;17.60;99.90;;;;;;4998580;28;20496;-59
2023/07/01 03:34:01;;;;;;;4.23;3.67;;;17.70;99.90;;;;;;4998612;28;21008;-60
2023/07/01 03:36:29;;;;;;;5.03;4.30;;;17.70;99.90;;;;;;4994600;28;20478;-61
2023/07/01 03:38:58;;;;;;;3.87;3.57;;;17.70;99.90;;;;;;4989999;28;20584;-61
2023/07/01 03:41:27;;;;;;;4.23;3.80;;;17.70;99.90;;;;;;4995334;28;21037;-61
2023/07/01 03:43:56;;;;;;;4.17;3.77;;;17.70;99.90;;;;;;4988526;28;21070;-61
2023/07/01 03:46:24;;;;;;;4.30;4.00;;;17.60;99.90;;;;;;4995835;28;20653;-59
2023/07/01 03:48:52;;;;;;;4.20;3.90;;;17.60;99.90;;;;;;5001154;28;20497;-61
2023/07/01 03:51:20;;;;;;;4.30;4.00;;;17.60;99.90;;;;;;5000127;28;20492;-58
2023/07/01 03:53:48;;;;;;;4.10;3.87;;;17.60;99.90;;;;;;4993947;28;21021;-59
2023/07/01 03:56:16;;;;;;;4.00;3.70;;;17.60;99.90;;;;;;4990326;28;20568;-61
2023/07/01 03:58:45;;;;;;;3.83;3.53;;;17.60;99.90;;;;;;4995404;28;21167;-61
2023/07/01 04:01:16;;;;;;;5.10;3.63;;;17.60;99.90;;;;;;4998437;28;20504;-61
2023/07/01 04:03:44;;;;;;;4.97;4.57;;;17.60;99.90;;;;;;4997254;28;20484;-60
2023/07/01 04:06:12;;;;;;;4.43;3.97;;;17.60;99.90;;;;;;4999129;28;20563;-60
2023/07/01 04:08:40;;;;;;;4.77;4.33;;;17.60;99.90;;;;;;4999220;28;20564;-61
2023/07/01 04:11:08;;;;;;;4.10;3.80;;;17.60;99.90;;;;;;4994630;28;20973;-61
2023/07/01 04:13:36;;;;;;;4.43;3.87;;;17.60;99.90;;;;;;4993645;28;20495;-61
2023/07/01 04:16:05;;;;;;;4.00;3.70;;;17.60;99.90;;;;;;4996521;28;20472;-60
2023/07/01 04:18:33;;;;;;;4.10;3.80;;;17.60;99.90;;;;;;4997354;28;20556;-60
2023/07/01 04:21:01;;;;;;;5.00;4.33;;;17.60;99.90;;;;;;4997482;28;20558;-61
2023/07/01 04:23:29;;;;;;;4.20;3.90;;;17.60;99.90;;;;;;4995568;28;20488;-60
2023/07/01 04:25:57;;;;;;;4.20;3.90;;;17.60;99.90;;;;;;4989816;28;20568;-60
2023/07/01 04:28:25;;;;;;;4.23;3.93;;;17.60;99.90;;;;;;4994783;28;20567;-61
2023/07/01 04:30:53;;;;;;;4.50;4.20;;;17.60;99.90;;;;;;4995169;28;20552;-59
2023/07/01 04:33:22;;;;;;;4.00;3.57;;;17.60;99.90;;;;;;4998566;28;20489;-58
2023/07/01 04:35:50;;;;;;;4.50;4.20;;;17.60;99.90;;;;;;4991273;28;20559;-59
2023/07/01 04:38:18;;;;;;;4.77;4.30;;;17.50;99.90;;;;;;4990576;28;20569;-59
2023/07/01 04:40:46;;;;;;;4.60;4.20;;;17.50;99.90;;;;;;4990998;28;20919;-60
2023/07/01 04:43:18;;;;;;;4.40;4.10;;;17.50;99.90;;;;;;4990322;28;20555;-60
2023/07/01 04:45:45;;;;;;;5.50;5.00;;;17.50;99.90;;;;;;4988441;28;20855;-59
2023/07/01 04:48:13;;;;;;;4.03;3.73;;;17.60;99.90;;;;;;4979198;28;20555;-61
2023/07/01 04:50:44;;;;;;;4.73;4.30;;;17.60;99.90;;;;;;4989615;28;20481;-60
2023/07/01 04:53:12;;;;;;;4.83;4.40;;;17.60;99.90;;;;;;4992881;28;20805;-60
2023/07/01 04:55:40;;;;;;;4.60;4.30;;;17.60;99.90;;;;;;4991416;28;20476;-61
2023/07/01 04:58:08;;;;;;;4.50;4.10;;;17.60;99.90;;;;;;4993111;28;20952;-58
2023/07/01 05:00:37;;;;;;;4.80;4.30;;;17.60;99.90;;;;;;4998640;28;20475;-60
2023/07/01 05:03:05;;;;;;;4.47;4.17;;;17.60;99.90;;;;;;4998080;28;20542;-60
2023/07/01 05:05:33;;;;;;;4.90;4.50;;;17.50;99.90;;;;;;4985756;28;20480;-61
2023/07/01 05:08:02;;;;;;;4.97;4.47;;;17.50;99.90;;;;;;4990740;28;20604;-61
2023/07/01 05:10:31;;;;;;;4.80;4.50;;;17.50;99.90;;;;;;4989311;28;20875;-61
2023/07/01 05:12:58;;;;;;;4.77;4.40;;;17.50;99.90;;;;;;4994207;28;20492;-61
2023/07/01 05:15:27;;;;;;;4.60;4.30;;;17.50;99.90;;;;;;4995071;28;20468;-60
2023/07/01 05:17:55;;;;;;;4.70;4.40;;;17.40;99.90;;;;;;4999289;28;20484;-61
2023/07/01 05:20:23;;;;;;;5.00;4.70;;;17.40;99.90;;;;;;4994075;28;20847;-61
2023/07/01 05:22:51;;;;;;;4.30;4.00;;;17.30;99.90;;;;;;4988318;28;20614;-59
2023/07/01 05:25:20;;;;;;;5.60;4.40;;;17.30;99.90;;;;;;4983597;28;20603;-61
2023/07/01 05:27:48;;;;;;;4.83;4.43;;;17.40;99.90;;;;;;4987779;28;20471;-59
2023/07/01 05:30:16;;;;;;;4.77;4.37;;;17.40;99.90;;;;;;4991758;28;20472;-59
2023/07/01 05:32:44;;;;;;;4.80;4.37;;;17.40;99.90;;;;;;4991241;28;20485;-58
2023/07/01 05:35:12;;;;;;;4.60;4.20;;;17.50;99.90;;;;;;4990363;28;20810;-61
2023/07/01 05:37:40;;;;;;;5.33;4.83;;;17.50;99.90;;;;;;4995064;28;20774;-61
2023/07/01 05:40:11;;;;;;;4.80;4.40;;;17.60;99.90;;;;;;4989658;28;21042;-59
2023/07/01 05:42:41;;;;;;;5.33;4.30;;;17.50;99.90;;;;;;4988332;28;20500;-61
2023/07/01 05:45:09;;;;;;;5.87;4.63;;;17.50;99.90;;;;;;4989085;28;20552;-59
2023/07/01 05:47:37;;;;;;;5.27;4.77;;;17.50;99.90;;;;;;4994084;28;20571;-59
2023/07/01 05:50:06;;;;;;;5.27;4.90;;;17.50;99.90;;;;;;4995672;28;20606;-59
2023/07/01 05:52:34;;;;;;;5.67;5.23;;;17.40;99.90;;;;;;4994275;28;20481;-59
2023/07/01 05:55:02;;;;;;;6.33;5.73;;;17.30;99.90;;;;;;4992297;28;20579;-59
2023/07/01 05:57:30;;;;;;;6.00;5.50;;;17.20;99.90;;;;;;4995148;28;20464;-59
2023/07/01 06:00:02;;;;;;;6.00;5.50;;;17.20;99.90;;;;;;4995493;28;20512;-59
2023/07/01 06:02:30;;;;;;;6.20;5.70;;;17.10;99.90;;;;;;4992060;28;20492;-59
2023/07/01 06:04:58;;;;;;;6.30;5.73;;;17.00;99.90;;;;;;4991781;28;20480;-59
2023/07/01 06:07:26;;;;;;;6.93;6.27;;;17.00;99.90;;;;;;4989713;28;20473;-61
2023/07/01 06:09:54;;;;;;;6.40;5.90;;;16.90;99.90;;;;;;4990419;28;20481;-59
2023/07/01 06:12:22;;;;;;;7.63;6.93;;;16.90;99.90;;;;;;4990618;28;20499;-59
2023/07/01 06:14:50;;;;;;;6.53;5.87;;;16.90;99.90;;;;;;4989541;28;20485;-59
2023/07/01 06:17:19;;;;;;;6.57;5.87;;;16.90;99.90;;;;;;4989700;28;20473;-59
2023/07/01 06:19:48;;;;;;;7.70;6.40;;;16.90;99.90;;;;;;4988922;28;20482;-59
2023/07/01 06:22:16;;;;;;;7.10;6.53;;;16.80;99.90;;;;;;4992333;28;20528;-59
2023/07/01 06:24:44;;;;;;;6.60;6.00;;;16.80;99.90;;;;;;4993288;28;20529;-60
2023/07/01 06:27:11;;;;;;;6.77;6.27;;;16.80;99.90;;;;;;4994846;28;20572;-60
2023/07/01 06:29:39;;;;;;;8.20;7.50;;;16.70;99.90;;;;;;4981931;28;20539;-59
2023/07/01 06:32:08;;;;;;;6.60;6.10;;;16.70;99.90;;;;;;4988351;28;20484;-60
2023/07/01 06:34:38;;;;;;;7.57;6.97;;;16.70;99.90;;;;;;4985364;28;20500;-59
2023/07/01 06:37:06;;;;;;;7.30;6.60;;;16.60;99.90;;;;;;4991074;28;20527;-59
2023/07/01 06:39:37;;;;;;;6.87;6.30;;;16.60;99.90;;;;;;4989556;28;20477;-60
2023/07/01 06:42:07;;;;;;;7.33;6.63;;;16.70;99.90;;;;;;4989568;28;20491;-60
2023/07/01 06:44:35;;;;;;;7.50;6.60;;;16.70;99.90;;;;;;4989316;28;20855;-59
2023/07/01 06:47:03;;;;;;;7.50;6.80;;;16.80;99.90;;;;;;4994370;28;20473;-59
2023/07/01 06:49:31;;;;;;;7.57;6.50;;;16.80;99.90;;;;;;4992233;28;20476;-59
2023/07/01 06:52:00;;;;;;;7.83;7.30;;;16.70;99.90;;;;;;4984910;28;20911;-59
2023/07/01 06:54:28;;;;;;;7.33;6.73;;;16.70;99.90;;;;;;4986757;28;20496;-57
2023/07/01 06:56:56;;;;;;;6.87;6.23;;;16.80;99.90;;;;;;4988410;28;20572;-58
2023/07/01 06:59:24;;;;;;;6.40;6.00;;;16.80;99.90;;;;;;4988810;28;20851;-60
2023/07/01 07:01:52;;;;;;;6.57;6.07;;;16.80;99.90;;;;;;4996615;28;20773;-59
2023/07/01 07:04:20;;;;;;;7.20;6.50;;;16.80;99.90;;;;;;4993426;28;20461;-59
2023/07/01 07:06:48;;;;;;;6.47;6.07;;;16.90;99.90;;;;;;4981555;28;20639;-59
2023/07/01 07:09:18;;;;;;;6.53;5.93;;;16.90;99.90;;;;;;5000237;28;20472;-60
2023/07/01 07:11:47;;;;;;;6.93;6.30;;;16.90;99.90;;;;;;4999996;28;20526;-58
2023/07/01 07:14:15;;;;;;;6.77;6.30;;;16.90;99.90;;;;;;5000047;28;20583;-60
2023/07/01 07:16:46;;;;;;;5.83;5.33;;;16.90;99.90;;;;;;4999604;28;21005;-58
2023/07/01 07:19:14;;;;;;;5.80;5.23;;;16.90;99.90;;;;;;4998193;28;20495;-59
2023/07/01 07:21:42;;;;;;;6.80;6.13;;;16.80;99.90;;;;;;5000568;28;20515;-58
2023/07/01 07:24:10;;;;;;;6.53;6.10;;;16.80;99.90;;;;;;5000323;28;22976;-58
2023/07/01 07:26:42;;;;;;;6.40;5.90;;;16.70;99.90;;;;;;5000337;28;20889;-60
2023/07/01 07:29:10;;;;;;;6.60;6.00;;;16.60;99.90;;;;;;4988524;28;21005;-56
2023/07/01 07:31:38;;;;;;;6.23;5.73;;;16.50;99.90;;;;;;4995564;28;20590;-59
2023/07/01 07:34:07;;;;;;;6.77;6.17;;;16.50;99.90;;;;;;4999152;28;21037;-61
2023/07/01 07:36:35;;;;;;;5.90;5.50;;;16.50;99.90;;;;;;4998752;28;20475;-58
2023/07/01 07:39:03;;;;;;;6.70;6.20;;;16.50;99.90;;;;;;5003329;28;20559;-58
2023/07/01 07:41:31;;;;;;;5.90;5.43;;;16.40;99.90;;;;;;5004210;28;20531;-59
2023/07/01 07:44:00;;;;;;;6.60;6.10;;;16.30;99.90;;;;;;4998461;28;20484;-59
2023/07/01 07:46:28;;;;;;;6.07;5.57;;;16.30;99.90;;;;;;5000329;28;20480;-57
2023/07/01 07:48:56;;;;;;;6.40;5.87;;;16.30;99.90;;;;;;5001974;28;20469;-58
2023/07/01 07:51:24;;;;;;;6.33;5.83;;;16.30;99.90;;;;;;4995088;28;20567;-60
2023/07/01 07:53:52;;;;;;;6.60;6.10;;;16.30;99.90;;;;;;4998575;28;22303;-57
2023/07/01 07:56:20;;;;;;;6.67;6.17;;;16.30;99.90;;;;;;4995926;28;20522;-58
2023/07/01 07:58:48;;;;;;;9.73;6.20;;;16.20;99.90;;;;;;5003530;28;20922;-60
2023/07/01 08:01:18;;;;;;;7.37;6.43;;;16.20;99.90;;;;;;4993613;28;20469;-58
2023/07/01 08:03:45;;;;;;;6.90;6.40;;;16.20;99.90;;;;;;4993102;28;20602;-60
2023/07/01 08:06:14;;;;;;;7.40;6.80;;;16.20;99.90;;;;;;4994351;28;20472;-59
2023/07/01 08:08:42;;;;;;;7.80;7.00;;;16.20;99.90;;;;;;4990710;28;20987;-60
2023/07/01 08:11:10;;;;;;;7.60;7.00;;;16.30;99.90;;;;;;4996336;28;20476;-59
2023/07/01 08:13:38;;;;;;;7.40;6.70;;;16.30;99.90;;;;;;4989880;28;20574;-61
2023/07/01 08:16:06;;;;;;;7.20;6.70;;;16.30;99.90;;;;;;4999618;28;20564;-61
2023/07/01 08:18:35;;;;;;;7.50;6.90;;;16.30;99.90;;;;;;4988561;28;20487;-61
2023/07/01 08:21:03;;;;;;;8.00;7.30;;;16.30;99.90;;;;;;4993901;28;20479;-58
2023/07/01 08:23:31;;;;;;;7.47;6.77;;;16.30;99.90;;;;;;4991571;28;20524;-60
2023/07/01 08:25:59;;;;;;;8.10;7.40;;;16.40;99.90;;;;;;4977242;28;20465;-59
2023/07/01 08:28:31;;;;;;;8.00;7.40;;;16.40;99.90;;;;;;4986774;28;21316;-57
2023/07/01 08:31:00;;;;;;;8.00;7.30;;;16.40;99.90;;;;;;4985714;28;20475;-59
2023/07/01 08:33:28;;;;;;;7.47;6.93;;;16.40;99.90;;;;;;4986557;28;20497;-62
2023/07/01 08:35:58;;;;;;;8.20;7.50;;;16.40;99.90;;;;;;4992029;28;20514;-60
2023/07/01 08:38:28;;;;;;;7.77;7.07;;;16.40;99.90;;;;;;4979003;28;20563;-60
2023/07/01 08:41:00;;;;;;;8.47;7.77;;;16.40;99.90;;;;;;4995395;28;20970;-59
2023/07/01 08:43:31;;;;;;;8.60;7.70;;;16.50;99.90;;;;;;4997888;28;20568;-59
2023/07/01 08:46:03;;;;;;;8.37;7.70;;;16.50;99.90;;;;;;4991142;28;20504;-60
2023/07/01 08:48:33;;;;;;;11.23;10.37;;;16.50;99.90;;;;;;4991141;28;20480;-60
2023/07/01 08:51:11;;;;;;;9.60;8.90;;;16.50;99.90;;;;;;4987543;28;20480;-58
2023/07/01 08:53:42;;;;;;;9.07;8.37;;;16.50;99.90;;;;;;4986075;28;20516;-60
2023/07/01 08:56:10;;;;;;;10.00;9.10;;;16.40;99.90;;;;;;4992028;28;21027;-60
2023/07/01 08:58:39;;;;;;;8.90;8.20;;;16.40;99.90;;;;;;4994578;28;20559;-62
2023/07/01 09:01:07;;;;;;;9.67;8.87;;;16.40;99.90;;;;;;4989533;28;21343;-59
2023/07/01 09:03:36;;;;;;;9.73;9.03;;;16.40;99.90;;;;;;4991132;28;20874;-60
2023/07/01 09:06:07;;;;;;;9.37;8.57;;;16.30;99.90;;;;;;4995540;28;20884;-60
2023/07/01 09:08:38;;;;;;;10.27;9.40;;;16.30;99.90;;;;;;4994885;28;20492;-59
2023/07/01 09:11:06;;;;;;;10.37;9.57;;;16.30;99.90;;;;;;4990234;28;20507;-60
2023/07/01 09:13:34;;;;;;;9.93;9.00;;;16.20;99.90;;;;;;4987765;28;20508;-60
2023/07/01 09:16:02;;;;;;;10.00;8.13;;;16.30;99.90;;;;;;4990134;28;20498;-60
2023/07/01 09:18:31;;;;;;;10.20;9.40;;;16.30;99.90;;;;;;4989315;28;20480;-60
2023/07/01 09:20:59;;;;;;;9.40;8.50;;;16.30;99.90;;;;;;4990561;28;20570;-59
2023/07/01 09:23:34;;;;;;;9.40;8.70;;;16.30;99.90;;;;;;4985825;28;21019;-59
2023/07/01 09:26:14;;;;;;;9.40;8.60;;;16.40;99.90;;;;;;4989964;28;20490;-60
2023/07/01 09:28:44;;;;;;;9.70;8.90;;;16.30;99.90;;;;;;4990771;28;21013;-62
2023/07/01 09:31:13;;;;;;;9.63;8.93;;;16.30;99.90;;;;;;4990273;28;20480;-59
2023/07/01 09:33:58;;;;;;;10.60;9.57;;;16.30;99.90;;;;;;4989637;28;20547;-59
2023/07/01 09:36:27;;;;;;;10.60;9.63;;;16.20;99.90;;;;;;4988615;28;20872;-61
2023/07/01 09:38:56;;;;;;;10.13;9.33;;;16.20;99.90;;;;;;4999122;28;20542;-61
2023/07/01 09:41:26;;;;;;;10.13;9.33;;;16.20;99.90;;;;;;4999159;28;20583;-61
2023/07/01 09:43:56;;;;;;;11.20;10.20;;;16.20;99.90;;;;;;4997937;28;20915;-61
2023/07/01 09:46:26;;;;;;;10.63;9.83;;;16.20;99.90;;;;;;5000153;28;20461;-58
2023/07/01 09:48:55;;;;;;;10.90;10.10;;;16.20;99.90;;;;;;4997933;28;20567;-59
2023/07/01 09:51:26;;;;;;;12.10;11.10;;;16.10;99.90;;;;;;4972118;28;20492;-60
2023/07/01 09:53:56;;;;;;;12.13;11.23;;;16.10;99.90;;;;;;4969665;28;21018;-59
2023/07/01 09:56:24;;;;;;;11.43;10.40;;;16.10;99.90;;;;;;4973488;28;20504;-59
2023/07/01 09:58:52;;;;;;;11.37;10.50;;;16.10;99.90;;;;;;4989765;28;20473;-59
2023/07/01 10:01:20;;;;;;;12.00;11.10;;;16.10;99.90;;;;;;4992416;28;20497;-59
2023/07/01 10:03:50;;;;;;;11.33;10.53;;;16.10;99.90;;;;;;4993175;28;21095;-60
2023/07/01 10:06:18;;;;;;;11.43;10.63;;;16.10;99.90;;;;;;4991248;28;20477;-58
2023/07/01 10:08:46;;;;;;;12.33;11.00;;;16.20;99.90;;;;;;4984896;28;20530;-58
2023/07/01 10:11:21;;;;;;;10.97;10.07;;;16.30;99.90;;;;;;4984631;28;20558;-61
2023/07/01 10:13:52;;;;;;;12.50;11.50;;;16.30;99.90;;;;;;4989891;28;20492;-58
2023/07/01 10:16:20;;;;;;;11.30;10.50;;;16.40;99.90;;;;;;4981561;28;20492;-59
2023/07/01 10:18:49;;;;;;;11.67;10.77;;;16.40;99.90;;;;;;4986414;28;20472;-58
2023/07/01 10:21:28;;;;;;;12.33;11.23;;;16.40;99.90;;;;;;4980510;28;20577;-59
2023/07/01 10:23:58;;;;;;;12.03;11.13;;;16.50;99.90;;;;;;4980331;28;20528;-59
2023/07/01 10:26:36;;;;;;;11.80;10.90;;;16.50;99.90;;;;;;4983131;28;21163;-60
2023/07/01 10:29:41;;;;;;;12.60;11.70;;;16.50;99.90;;;;;;4992652;28;20472;-60
2023/07/01 10:32:34;;;;;;;12.80;11.80;;;16.50;99.90;;;;;;4974842;28;20611;-59
2023/07/01 10:35:10;;;;;;;13.03;11.97;;;16.50;99.90;;;;;;4986572;28;20483;-61
2023/07/01 10:37:38;;;;;;;11.90;10.90;;;16.50;99.90;;;;;;4992280;28;20471;-58
2023/07/01 10:40:43;;;;;;;11.83;10.93;;;16.50;99.90;;;;;;4971026;28;20966;-60
2023/07/01 10:43:30;;;;;;;11.67;10.80;;;16.50;99.90;;;;;;4978315;28;21545;-58
2023/07/01 10:46:07;;;;;;;11.93;11.13;;;16.50;99.90;;;;;;4973214;28;20469;-59
2023/07/01 10:48:35;;;;;;;11.77;10.93;;;16.50;99.90;;;;;;4970846;28;20477;-59
2023/07/01 10:51:05;;;;;;;12.70;11.60;;;16.40;99.90;;;;;;4985349;28;20472;-60
2023/07/01 10:53:56;;;;;;;13.47;12.47;;;16.40;99.90;;;;;;4984469;28;20567;-59
2023/07/01 10:56:24;;;;;;;12.13;11.17;;;16.40;99.90;;;;;;4990178;28;21500;-58
2023/07/01 10:59:21;;;;;;;12.67;11.67;;;16.40;99.90;;;;;;4993789;28;20468;-59
2023/07/01 11:01:51;;;;;;;12.30;11.40;;;16.40;99.90;;;;;;4987606;28;20492;-61
2023/07/01 11:04:20;;;;;;;12.70;11.70;;;16.40;99.90;;;;;;4986703;28;20471;-59
2023/07/01 11:06:53;;;;;;;12.97;12.00;;;16.40;99.90;;;;;;4977557;28;20473;-60
2023/07/01 11:09:32;;;;;;;13.53;12.40;;;16.40;99.90;;;;;;4975824;28;20471;-58
2023/07/01 11:12:02;;;;;;;12.57;11.57;;;16.40;99.90;;;;;;4974587;28;21276;-59
2023/07/01 11:14:34;;;;;;;12.87;11.87;;;16.40;99.90;;;;;;4975620;28;20480;-58
2023/07/01 11:17:07;;;;;;;14.20;13.10;;;16.50;99.90;;;;;;4977221;28;20492;-59
2023/07/01 11:19:35;;;;;;;12.63;11.60;;;16.50;99.90;;;;;;4987379;28;20535;-61
2023/07/01 11:22:04;;;;;;;11.90;11.10;;;16.40;99.90;;;;;;4995808;28;20579;-59
2023/07/01 11:24:33;;;;;;;11.80;11.00;;;16.40;99.90;;;;;;4988549;28;20483;-61
2023/07/01 11:27:03;;;;;;;12.80;11.77;;;16.40;99.90;;;;;;4987336;28;20547;-62
2023/07/01 11:29:32;;;;;;;12.87;11.87;;;16.40;99.90;;;;;;4984619;28;20522;-58
2023/07/01 11:32:02;;;;;;;13.37;12.37;;;16.40;99.90;;;;;;4991807;28;20507;-62
2023/07/01 11:34:31;;;;;;;12.33;11.43;;;16.40;99.90;;;;;;4988923;28;20472;-63
2023/07/01 11:37:00;;;;;;;12.20;11.30;;;16.40;99.90;;;;;;4985825;28;20627;-66
2023/07/01 11:39:28;;;;;;;13.60;12.50;;;16.40;99.90;;;;;;4990305;28;20476;-64
2023/07/01 11:41:58;;;;;;;13.20;12.10;;;16.40;99.90;;;;;;4990237;28;20503;-63
2023/07/01 11:44:27;;;;;;;12.87;11.90;;;16.40;99.90;;;;;;4992966;28;20505;-66
2023/07/01 11:46:57;;;;;;;12.57;11.53;;;16.40;99.90;;;;;;4994430;28;20812;-63
2023/07/01 11:49:26;;;;;;;12.13;11.23;;;16.50;99.90;;;;;;4993898;28;20582;-60
2023/07/01 11:51:55;;;;;;;12.30;11.40;;;16.50;99.90;;;;;;4985050;28;21343;-60
2023/07/01 11:54:25;;;;;;;11.93;11.10;;;16.50;99.90;;;;;;4985087;28;20706;-58
2023/07/01 11:57:08;;;;;;;12.47;11.47;;;16.60;99.90;;;;;;4997561;28;20496;-59
2023/07/01 11:59:38;;;;;;;11.43;10.50;;;16.60;99.90;;;;;;5001130;28;20507;-59
2023/07/01 12:02:08;;;;;;;12.07;11.17;;;16.60;99.90;;;;;;4999013;28;20535;-60
2023/07/01 12:04:37;;;;;;;11.77;10.87;;;16.60;99.90;;;;;;4996055;28;20484;-60
2023/07/01 12:07:10;;;;;;;12.03;11.13;;;16.70;99.90;;;;;;5002179;28;20949;-59
2023/07/01 12:09:40;;;;;;;12.20;11.20;;;16.70;99.90;;;;;;4990613;28;20503;-58
2023/07/01 12:12:10;;;;;;;11.83;10.93;;;16.80;99.90;;;;;;4989842;28;20919;-58
2023/07/01 12:14:38;;;;;;;11.00;10.30;;;16.70;99.90;;;;;;4991351;28;21048;-58
2023/07/01 12:17:09;;;;;;;11.10;10.30;;;16.80;99.90;;;;;;4995026;28;21114;-58
2023/07/01 12:19:37;;;;;;;11.03;10.23;;;16.80;99.90;;;;;;4990249;28;20737;-60
2023/07/01 12:22:05;;;;;;;11.23;10.33;;;16.90;99.90;;;;;;4988129;28;20490;-61
2023/07/01 12:24:35;;;;;;;11.13;10.33;;;16.90;99.90;;;;;;4972832;28;20472;-58
2023/07/01 12:27:04;;;;;;;11.30;10.50;;;16.90;99.90;;;;;;4989678;28;20480;-60
2023/07/01 12:29:32;;;;;;;10.60;9.80;;;16.90;99.90;;;;;;4994084;28;20473;-58
2023/07/01 12:32:00;;;;;;;10.20;9.50;;;16.90;99.90;;;;;;4991299;28;20578;-59
2023/07/01 12:34:29;;;;;;;9.70;8.90;;;16.90;99.90;;;;;;4984773;28;20480;-61
2023/07/01 12:36:58;;;;;;;9.93;9.13;;;16.90;99.90;;;;;;4986785;28;20492;-61
2023/07/01 12:39:27;;;;;;;9.43;8.73;;;17.00;99.90;;;;;;4986811;28;20884;-58
2023/07/01 12:41:55;;;;;;;9.00;8.20;;;17.00;99.90;;;;;;4991042;28;20588;-61
2023/07/01 12:44:23;;;;;;;9.27;8.47;;;17.10;99.90;;;;;;4989438;28;20481;-62
2023/07/01 12:46:51;;;;;;;10.07;9.27;;;17.10;99.90;;;;;;4994678;28;20526;-63
2023/07/01 12:49:19;;;;;;;9.07;8.47;;;17.20;99.90;;;;;;4994144;28;20468;-62
2023/07/01 12:51:49;;;;;;;9.60;8.80;;;17.20;99.90;;;;;;4996720;28;20521;-62
2023/07/01 12:54:17;;;;;;;9.60;8.73;;;17.30;99.90;;;;;;4991648;28;20479;-60
2023/07/01 12:56:46;;;;;;;10.33;9.40;;;17.30;99.90;;;;;;4992266;28;20502;-62